Time;durP1;ratioP1;P1;durP2;ratioP2;P2;SDS_P1;SDS_P2;PMS_P1;PMS_P2;Temp;Humidity;BMP_temperature;BMP_pressure;BME280_temperature;BME280_humidity;BME280_pressure;Samples;Min_cycle;Max_cycle;Signal;HPM_P1;HPM_P2
2021/08/09 04:50:18;;;;;;;12.63;5.18;;;;;;;;;;6069727;23;20097;-79
2021/08/09 04:52:46;;;;;;;11.60;5.63;;;;;;;;;;5012005;28;20068;-81
2021/08/09 04:55:21;;;;;;;10.32;6.03;;;;;;;;;;5013191;28;20042;-81
2021/08/09 04:57:48;;;;;;;7.18;4.70;;;;;;;;;;5012121;28;20041;-81
2021/08/09 05:00:16;;;;;;;9.10;5.25;;;;;;;;;;5030166;28;20483;-80
2021/08/09 05:02:44;;;;;;;9.75;5.43;;;;;;;;;;5030190;28;20091;-81
2021/08/09 05:05:15;;;;;;;8.68;5.30;;;;;;;;;;5012855;28;20502;-81
2021/08/09 05:07:43;;;;;;;8.77;6.53;;;;;;;;;;5029184;28;20068;-81
2021/08/09 05:10:13;;;;;;;10.50;6.10;;;;;;;;;;5012292;28;20064;-81
2021/08/09 05:12:40;;;;;;;9.40;6.85;;;;;;;;;;5012283;28;20198;-81
2021/08/09 05:15:12;;;;;;;10.77;6.82;;;;;;;;;;5012388;28;20095;-81
2021/08/09 05:17:40;;;;;;;12.07;5.80;;;;;;;;;;5012239;28;20610;-81
2021/08/09 05:20:07;;;;;;;8.40;5.57;;;;;;;;;;5030078;28;20120;-81
2021/08/09 05:22:35;;;;;;;11.13;6.20;;;;;;;;;;5029987;28;20042;-81
2021/08/09 05:25:08;;;;;;;8.27;5.30;;;;;;;;;;5012689;28;20055;-81
2021/08/09 05:27:35;;;;;;;6.88;5.63;;;;;;;;;;5030027;28;20046;-82
2021/08/09 05:30:03;;;;;;;10.48;5.22;;;;;;;;;;5030221;28;20104;-81
2021/08/09 05:32:31;;;;;;;8.68;5.13;;;;;;;;;;5030507;28;20125;-81
2021/08/09 05:34:58;;;;;;;8.10;4.47;;;;;;;;;;5013062;28;20071;-81
2021/08/09 05:37:29;;;;;;;9.05;4.35;;;;;;;;;;5012487;28;20045;-81
2021/08/09 05:39:57;;;;;;;9.57;4.25;;;;;;;;;;5012855;28;20041;-81
2021/08/09 05:42:27;;;;;;;7.40;4.15;;;;;;;;;;5012377;28;20053;-81
2021/08/09 05:44:54;;;;;;;7.35;4.50;;;;;;;;;;5012759;28;20041;-81
2021/08/09 05:47:22;;;;;;;8.20;4.40;;;;;;;;;;5012293;28;20510;-81
2021/08/09 05:49:50;;;;;;;5.90;4.05;;;;;;;;;;5012672;28;20053;-81
2021/08/09 05:52:20;;;;;;;6.13;3.72;;;;;;;;;;5012427;28;20489;-81
2021/08/09 05:54:50;;;;;;;7.32;4.13;;;;;;;;;;5012638;28;20050;-81
2021/08/09 05:57:19;;;;;;;5.75;3.50;;;;;;;;;;5027700;28;20421;-80
2021/08/09 05:59:47;;;;;;;7.90;3.75;;;;;;;;;;5053421;28;20076;-81
2021/08/09 06:02:17;;;;;;;8.88;4.05;;;;;;;;;;5017675;28;20037;-81
2021/08/09 06:04:44;;;;;;;6.97;4.07;;;;;;;;;;5013257;28;20113;-81
2021/08/09 06:07:13;;;;;;;5.70;4.30;;;;;;;;;;5030732;28;20103;-81
2021/08/09 06:09:42;;;;;;;10.20;4.50;;;;;;;;;;5015925;28;20071;-80
2021/08/09 06:12:10;;;;;;;8.85;4.70;;;;;;;;;;5054412;28;20068;-81
2021/08/09 06:14:38;;;;;;;6.97;4.20;;;;;;;;;;5037353;28;20053;-80
2021/08/09 06:17:07;;;;;;;5.70;3.67;;;;;;;;;;5043854;28;20052;-81
2021/08/09 06:19:36;;;;;;;7.57;3.78;;;;;;;;;;5013606;28;20041;-81
2021/08/09 06:22:04;;;;;;;7.63;3.53;;;;;;;;;;5015670;28;20059;-81
2021/08/09 06:24:33;;;;;;;5.93;3.50;;;;;;;;;;5016295;28;20073;-81
2021/08/09 06:27:01;;;;;;;5.43;3.13;;;;;;;;;;5015903;28;20042;-82
2021/08/09 06:29:28;;;;;;;5.72;3.33;;;;;;;;;;5016054;28;20457;-81
2021/08/09 06:31:56;;;;;;;10.45;3.58;;;;;;;;;;5015885;28;20096;-81
2021/08/09 06:34:40;;;;;;;5.65;2.80;;;;;;;;;;5052633;28;20057;-81
2021/08/09 06:37:09;;;;;;;6.22;2.70;;;;;;;;;;5032773;28;20049;-81
2021/08/09 06:39:40;;;;;;;9.20;2.95;;;;;;;;;;5039472;28;20116;-81
2021/08/09 06:42:08;;;;;;;5.68;2.42;;;;;;;;;;5039217;28;20046;-81
2021/08/09 06:44:41;;;;;;;3.28;2.60;;;;;;;;;;5032631;28;20049;-81
2021/08/09 06:47:09;;;;;;;5.05;2.10;;;;;;;;;;5018730;28;20050;-82
2021/08/09 06:49:37;;;;;;;4.68;2.28;;;;;;;;;;5015433;28;20041;-81
2021/08/09 06:52:05;;;;;;;3.85;2.30;;;;;;;;;;5014612;28;20437;-81
2021/08/09 06:54:34;;;;;;;6.90;2.58;;;;;;;;;;5015123;28;20129;-80
2021/08/09 06:57:10;;;;;;;5.97;2.70;;;;;;;;;;5014569;28;20128;-82
2021/08/09 06:59:38;;;;;;;6.25;3.08;;;;;;;;;;5015208;28;20042;-81
2021/08/09 07:02:06;;;;;;;10.48;2.75;;;;;;;;;;5014867;28;20037;-82
2021/08/09 07:04:34;;;;;;;7.43;3.28;;;;;;;;;;5015084;28;20053;-82
2021/08/09 07:07:02;;;;;;;3.90;2.38;;;;;;;;;;5014571;28;20145;-81
2021/08/09 07:09:29;;;;;;;4.30;1.85;;;;;;;;;;5032600;28;20042;-81
2021/08/09 07:11:58;;;;;;;4.45;2.15;;;;;;;;;;5014832;28;20132;-82
2021/08/09 07:14:26;;;;;;;3.03;2.63;;;;;;;;;;5015364;28;20046;-81
2021/08/09 07:16:54;;;;;;;3.47;3.10;;;;;;;;;;5014635;28;20065;-81
2021/08/09 07:19:22;;;;;;;5.18;3.28;;;;;;;;;;5015438;28;20045;-81
2021/08/09 07:21:50;;;;;;;6.13;3.40;;;;;;;;;;5014597;28;20477;-81
2021/08/09 07:24:18;;;;;;;5.45;2.92;;;;;;;;;;5014789;28;20050;-82
2021/08/09 07:26:46;;;;;;;7.43;3.72;;;;;;;;;;5014374;28;20463;-82
2021/08/09 07:29:16;;;;;;;5.88;2.97;;;;;;;;;;5014479;28;20133;-82
2021/08/09 07:31:43;;;;;;;4.63;3.13;;;;;;;;;;5013817;28;20574;-80
2021/08/09 07:34:11;;;;;;;4.28;2.97;;;;;;;;;;5014925;28;20053;-80
2021/08/09 07:36:38;;;;;;;6.75;2.65;;;;;;;;;;5013994;28;20080;-80
2021/08/09 07:39:08;;;;;;;8.15;3.20;;;;;;;;;;5014680;28;20507;-83
2021/08/09 07:41:35;;;;;;;19.13;3.80;;;;;;;;;;5014808;28;20045;-82
2021/08/09 07:44:03;;;;;;;4.30;3.20;;;;;;;;;;5014214;28;20099;-81
2021/08/09 07:46:32;;;;;;;7.65;3.40;;;;;;;;;;5013982;28;20073;-82
2021/08/09 07:49:00;;;;;;;5.80;2.75;;;;;;;;;;5014072;28;20096;-82
2021/08/09 07:51:30;;;;;;;3.65;2.65;;;;;;;;;;5013486;28;20584;-82
2021/08/09 07:53:58;;;;;;;4.88;2.65;;;;;;;;;;5014854;28;20045;-82
2021/08/09 07:56:26;;;;;;;8.02;3.00;;;;;;;;;;5032061;28;20121;-82
2021/08/09 07:58:53;;;;;;;3.92;3.17;;;;;;;;;;5013899;28;20107;-82
2021/08/09 08:01:23;;;;;;;6.13;2.92;;;;;;;;;;5031517;28;20133;-82
2021/08/09 08:03:51;;;;;;;6.45;2.83;;;;;;;;;;5013744;28;20056;-82
2021/08/09 08:06:19;;;;;;;3.97;3.00;;;;;;;;;;5032074;28;20107;-83
2021/08/09 08:08:47;;;;;;;5.88;2.53;;;;;;;;;;5013916;28;20495;-82
2021/08/09 08:11:14;;;;;;;5.43;2.45;;;;;;;;;;5013643;28;20060;-82
2021/08/09 08:13:42;;;;;;;4.32;2.88;;;;;;;;;;5014303;28;20060;-82
2021/08/09 08:16:10;;;;;;;9.40;2.08;;;;;;;;;;5013458;28;20466;-82
2021/08/09 08:18:37;;;;;;;5.35;2.10;;;;;;;;;;5013365;28;20495;-82
2021/08/09 08:21:06;;;;;;;3.85;1.85;;;;;;;;;;5013493;28;20057;-82
2021/08/09 08:23:33;;;;;;;3.85;1.83;;;;;;;;;;5031579;28;20037;-82
2021/08/09 08:26:01;;;;;;;4.43;1.55;;;;;;;;;;5013369;28;20041;-82
2021/08/09 08:28:29;;;;;;;5.13;1.70;;;;;;;;;;5013584;28;20048;-82
2021/08/09 08:30:57;;;;;;;2.88;2.08;;;;;;;;;;5013248;28;20561;-82
2021/08/09 08:33:24;;;;;;;6.22;1.90;;;;;;;;;;5031611;28;20141;-82
2021/08/09 08:35:52;;;;;;;6.03;2.15;;;;;;;;;;5013981;28;20042;-82
2021/08/09 08:38:22;;;;;;;3.22;1.70;;;;;;;;;;5013359;28;20530;-82
2021/08/09 08:40:51;;;;;;;5.35;1.83;;;;;;;;;;4996762;28;20041;-82
2021/08/09 08:43:21;;;;;;;5.82;1.95;;;;;;;;;;5013464;28;20064;-82
2021/08/09 08:45:55;;;;;;;4.05;1.60;;;;;;;;;;5013005;28;20533;-83
2021/08/09 08:48:23;;;;;;;4.85;1.88;;;;;;;;;;5012767;28;20076;-81
2021/08/09 08:50:51;;;;;;;3.63;1.70;;;;;;;;;;5025601;28;20121;-82
2021/08/09 08:53:18;;;;;;;5.68;1.63;;;;;;;;;;4993218;28;20463;-81
2021/08/09 08:55:47;;;;;;;4.22;1.80;;;;;;;;;;4993463;28;20450;-82
2021/08/09 08:58:15;;;;;;;4.05;1.40;;;;;;;;;;5010728;28;20054;-81
2021/08/09 09:00:43;;;;;;;4.15;1.73;;;;;;;;;;4993272;28;20125;-81
2021/08/09 09:03:17;;;;;;;2.80;1.60;;;;;;;;;;5011726;28;20038;-81
2021/08/09 09:05:57;;;;;;;3.85;1.73;;;;;;;;;;5011504;28;20065;-81
2021/08/09 09:08:36;;;;;;;3.95;2.00;;;;;;;;;;5010408;28;20069;-81
2021/08/09 09:11:05;;;;;;;2.05;1.55;;;;;;;;;;5011001;28;20041;-80
2021/08/09 09:13:34;;;;;;;5.20;1.45;;;;;;;;;;5011076;28;20093;-82
2021/08/09 09:16:03;;;;;;;3.17;2.35;;;;;;;;;;5011386;28;20044;-83
2021/08/09 09:18:44;;;;;;;3.85;1.92;;;;;;;;;;5025186;28;20054;-83
2021/08/09 09:21:25;;;;;;;3.75;1.83;;;;;;;;;;5028110;28;20049;-82
2021/08/09 09:23:52;;;;;;;9.63;2.00;;;;;;;;;;5030590;28;20030;-82
2021/08/09 09:26:21;;;;;;;5.97;1.83;;;;;;;;;;5032424;28;20046;-82
2021/08/09 09:28:50;;;;;;;3.45;1.80;;;;;;;;;;5028709;28;20132;-82
2021/08/09 09:31:27;;;;;;;4.15;1.60;;;;;;;;;;5017668;28;20049;-82
2021/08/09 09:33:54;;;;;;;2.08;1.50;;;;;;;;;;5010370;28;20074;-83
2021/08/09 09:36:22;;;;;;;5.50;1.20;;;;;;;;;;5010458;28;20107;-83
2021/08/09 09:38:51;;;;;;;3.50;1.50;;;;;;;;;;5010990;28;20080;-83
2021/08/09 09:41:18;;;;;;;3.00;1.45;;;;;;;;;;5010755;28;20100;-83
2021/08/09 09:43:48;;;;;;;6.45;1.75;;;;;;;;;;5010667;28;20045;-82
2021/08/09 09:46:22;;;;;;;3.20;1.63;;;;;;;;;;5011224;28;20046;-82
2021/08/09 09:48:50;;;;;;;3.70;1.30;;;;;;;;;;5010871;28;20135;-82
2021/08/09 09:51:19;;;;;;;5.30;1.80;;;;;;;;;;5010517;28;20078;-82
2021/08/09 09:53:47;;;;;;;3.97;1.70;;;;;;;;;;5011016;28;20061;-82
2021/08/09 09:56:14;;;;;;;4.43;1.25;;;;;;;;;;5014937;28;20052;-82
2021/08/09 09:58:41;;;;;;;5.82;1.58;;;;;;;;;;5014241;28;20050;-83
2021/08/09 10:01:11;;;;;;;3.03;1.48;;;;;;;;;;5014310;28;20046;-83
2021/08/09 10:03:39;;;;;;;2.67;1.48;;;;;;;;;;5014665;28;20558;-83
2021/08/09 10:06:06;;;;;;;5.85;1.65;;;;;;;;;;5015153;28;20045;-83
2021/08/09 10:08:34;;;;;;;2.63;1.45;;;;;;;;;;5016656;28;20049;-83
2021/08/09 10:11:06;;;;;;;4.82;1.55;;;;;;;;;;5018614;28;20060;-82
2021/08/09 10:13:34;;;;;;;2.50;1.50;;;;;;;;;;5018918;28;20049;-82
2021/08/09 10:16:05;;;;;;;7.47;1.52;;;;;;;;;;5020259;28;20069;-82
2021/08/09 10:18:35;;;;;;;3.58;1.92;;;;;;;;;;5023509;28;20050;-82
2021/08/09 10:21:03;;;;;;;6.40;1.70;;;;;;;;;;5028447;28;20046;-83
2021/08/09 10:23:44;;;;;;;4.35;1.42;;;;;;;;;;5020944;28;20053;-83
2021/08/09 10:26:12;;;;;;;4.53;1.65;;;;;;;;;;5015983;28;20096;-82
2021/08/09 10:28:58;;;;;;;3.50;1.45;;;;;;;;;;5014219;28;20497;-83
2021/08/09 10:31:29;;;;;;;9.38;2.10;;;;;;;;;;5021256;28;20057;-81
2021/08/09 10:33:58;;;;;;;6.78;1.73;;;;;;;;;;5036706;28;20056;-82
2021/08/09 10:36:26;;;;;;;3.85;2.10;;;;;;;;;;5035178;28;20072;-81
2021/08/09 10:38:54;;;;;;;3.55;1.73;;;;;;;;;;4998624;28;20104;-82
2021/08/09 10:41:40;;;;;;;4.07;1.52;;;;;;;;;;5014337;28;20049;-82
2021/08/09 10:44:24;;;;;;;4.93;1.85;;;;;;;;;;4996706;28;20050;-82
2021/08/09 10:46:53;;;;;;;5.30;1.60;;;;;;;;;;5013777;28;20108;-82
2021/08/09 10:49:40;;;;;;;3.97;1.70;;;;;;;;;;4995857;28;20045;-82
2021/08/09 10:52:09;;;;;;;5.82;1.60;;;;;;;;;;5028488;28;20046;-82
2021/08/09 10:54:37;;;;;;;3.90;1.88;;;;;;;;;;5033144;28;20045;-81
2021/08/09 10:57:05;;;;;;;3.20;1.48;;;;;;;;;;5032888;28;20243;-82
2021/08/09 10:59:43;;;;;;;3.58;1.75;;;;;;;;;;5015743;28;20576;-82
2021/08/09 11:02:17;;;;;;;4.15;1.60;;;;;;;;;;5033070;28;20053;-82
2021/08/09 11:04:44;;;;;;;3.70;1.80;;;;;;;;;;5033080;28;20092;-82
2021/08/09 11:07:19;;;;;;;8.32;2.17;;;;;;;;;;5031762;28;20399;-82
2021/08/09 11:09:47;;;;;;;5.32;1.55;;;;;;;;;;5033640;28;20490;-81
2021/08/09 11:12:18;;;;;;;4.75;1.50;;;;;;;;;;5033195;28;20064;-81
2021/08/09 11:15:06;;;;;;;2.63;1.50;;;;;;;;;;5033206;28;20411;-81
2021/08/09 11:17:34;;;;;;;3.97;1.52;;;;;;;;;;5032331;28;20494;-81
2021/08/09 11:20:10;;;;;;;5.57;1.48;;;;;;;;;;5032398;28;20136;-80
2021/08/09 11:22:39;;;;;;;3.83;1.50;;;;;;;;;;5032862;28;20061;-81
2021/08/09 11:25:24;;;;;;;2.92;1.70;;;;;;;;;;5032263;28;20056;-81
2021/08/09 11:27:58;;;;;;;3.35;1.55;;;;;;;;;;5033128;28;20037;-82
2021/08/09 11:30:32;;;;;;;10.13;1.80;;;;;;;;;;5032870;28;20418;-82
2021/08/09 11:33:02;;;;;;;5.95;1.55;;;;;;;;;;5032574;28;20121;-81
2021/08/09 11:35:32;;;;;;;2.75;1.48;;;;;;;;;;5014746;28;20463;-81
2021/08/09 11:38:02;;;;;;;4.50;1.70;;;;;;;;;;5032421;28;20049;-82
2021/08/09 11:40:37;;;;;;;3.22;1.63;;;;;;;;;;5008013;28;20068;-81
2021/08/09 11:43:04;;;;;;;6.03;2.00;;;;;;;;;;5021096;28;20132;-81
2021/08/09 11:45:32;;;;;;;4.55;1.60;;;;;;;;;;5032212;28;20044;-80
2021/08/09 11:47:59;;;;;;;4.60;1.95;;;;;;;;;;5032095;28;20357;-80
2021/08/09 11:50:27;;;;;;;4.90;2.15;;;;;;;;;;5031830;28;20042;-81
2021/08/09 11:52:54;;;;;;;5.50;1.92;;;;;;;;;;5032482;28;20048;-81
2021/08/09 11:55:23;;;;;;;4.03;1.92;;;;;;;;;;5032142;28;20072;-81
2021/08/09 11:57:51;;;;;;;4.50;1.88;;;;;;;;;;5031910;28;20042;-81
2021/08/09 12:00:18;;;;;;;7.00;1.92;;;;;;;;;;5032277;28;20132;-81
2021/08/09 12:03:04;;;;;;;1.80;1.27;;;;;;;;;;5032862;28;20045;-80
2021/08/09 12:05:31;;;;;;;3.42;1.80;;;;;;;;;;5047582;28;20056;-81
2021/08/09 12:08:03;;;;;;;4.78;2.00;;;;;;;;;;5051016;28;20041;-80
2021/08/09 12:10:35;;;;;;;5.07;1.70;;;;;;;;;;5053835;28;20051;-81
2021/08/09 12:13:02;;;;;;;3.92;1.75;;;;;;;;;;5055532;28;20068;-80
2021/08/09 12:15:30;;;;;;;5.13;1.55;;;;;;;;;;5051818;28;20042;-81
2021/08/09 12:18:03;;;;;;;5.35;1.65;;;;;;;;;;5041617;28;20260;-82
2021/08/09 12:20:31;;;;;;;7.38;1.77;;;;;;;;;;5014261;28;20049;-81
2021/08/09 12:22:58;;;;;;;3.88;1.73;;;;;;;;;;5032390;28;20050;-81
2021/08/09 12:25:37;;;;;;;2.97;1.60;;;;;;;;;;5031490;28;20064;-82
2021/08/09 12:28:05;;;;;;;4.30;1.63;;;;;;;;;;5031112;28;20041;-82
2021/08/09 12:30:32;;;;;;;4.75;1.67;;;;;;;;;;5031408;28;20088;-81
2021/08/09 12:33:01;;;;;;;4.45;1.50;;;;;;;;;;5031040;28;20418;-82
2021/08/09 12:35:34;;;;;;;5.07;2.10;;;;;;;;;;5013578;28;20053;-81
2021/08/09 12:38:01;;;;;;;4.43;1.83;;;;;;;;;;5031222;28;20041;-80
2021/08/09 12:40:38;;;;;;;2.17;1.55;;;;;;;;;;5013339;28;20041;-81
2021/08/09 12:43:08;;;;;;;4.72;1.58;;;;;;;;;;5022424;28;20076;-81
2021/08/09 12:45:36;;;;;;;4.90;1.80;;;;;;;;;;5011856;28;20069;-81
2021/08/09 12:48:04;;;;;;;3.55;1.75;;;;;;;;;;5010878;28;20392;-81
2021/08/09 12:50:32;;;;;;;3.90;1.73;;;;;;;;;;5011062;28;20127;-81
2021/08/09 12:52:59;;;;;;;3.17;1.40;;;;;;;;;;5011213;28;20575;-81
2021/08/09 12:55:27;;;;;;;4.55;2.03;;;;;;;;;;5011328;28;20392;-81
2021/08/09 12:57:54;;;;;;;5.75;2.20;;;;;;;;;;5010790;28;20111;-82
2021/08/09 13:00:23;;;;;;;3.33;1.40;;;;;;;;;;5011363;28;20045;-82
2021/08/09 13:02:50;;;;;;;2.70;1.63;;;;;;;;;;5011235;28;20483;-82
2021/08/09 13:05:18;;;;;;;4.75;1.80;;;;;;;;;;5010539;28;20137;-82
2021/08/09 13:07:46;;;;;;;3.25;1.55;;;;;;;;;;5010438;28;20057;-82
2021/08/09 13:10:13;;;;;;;3.65;1.48;;;;;;;;;;5002668;28;20455;-82
2021/08/09 13:12:41;;;;;;;4.50;1.90;;;;;;;;;;5010967;28;20113;-82
2021/08/09 13:15:09;;;;;;;4.40;1.83;;;;;;;;;;5010650;28;20136;-82
2021/08/09 13:17:38;;;;;;;3.20;1.60;;;;;;;;;;5010490;28;20132;-82
2021/08/09 13:20:06;;;;;;;2.78;1.45;;;;;;;;;;5010410;28;20056;-82
2021/08/09 13:22:33;;;;;;;3.20;1.50;;;;;;;;;;5010418;28;20138;-82
2021/08/09 13:25:02;;;;;;;2.97;1.58;;;;;;;;;;4992762;28;20034;-82
2021/08/09 13:27:30;;;;;;;2.92;1.92;;;;;;;;;;5010304;28;20046;-82
2021/08/09 13:29:59;;;;;;;4.10;1.70;;;;;;;;;;5009798;28;20038;-82
2021/08/09 13:32:26;;;;;;;5.35;1.92;;;;;;;;;;5010314;28;20427;-82
2021/08/09 13:34:57;;;;;;;5.57;1.85;;;;;;;;;;5010931;28;20046;-82
2021/08/09 13:37:24;;;;;;;5.47;1.75;;;;;;;;;;5010226;28;20045;-82
2021/08/09 13:39:51;;;;;;;5.10;1.63;;;;;;;;;;5010472;28;20488;-81
2021/08/09 13:42:19;;;;;;;3.92;2.05;;;;;;;;;;5010196;28;20046;-81
2021/08/09 13:44:46;;;;;;;4.13;1.40;;;;;;;;;;5010303;28;20104;-82
2021/08/09 13:47:14;;;;;;;3.80;1.83;;;;;;;;;;5009482;28;20092;-82
2021/08/09 13:49:44;;;;;;;3.90;1.65;;;;;;;;;;5010022;28;20046;-82
2021/08/09 13:52:16;;;;;;;5.85;1.70;;;;;;;;;;5009829;28;20053;-81
2021/08/09 13:54:43;;;;;;;3.83;1.75;;;;;;;;;;5010476;28;20041;-82
2021/08/09 13:57:11;;;;;;;4.30;1.60;;;;;;;;;;5009846;28;20190;-82
2021/08/09 13:59:38;;;;;;;4.95;1.52;;;;;;;;;;5010131;28;20053;-82
2021/08/09 14:02:07;;;;;;;5.80;1.42;;;;;;;;;;5010234;28;20116;-81
2021/08/09 14:04:39;;;;;;;3.65;1.70;;;;;;;;;;5010578;28;20046;-81
2021/08/09 14:07:07;;;;;;;3.28;1.70;;;;;;;;;;5010551;28;20045;-81
2021/08/09 14:09:36;;;;;;;1.65;1.42;;;;;;;;;;5010650;28;20164;-81
2021/08/09 14:12:03;;;;;;;4.22;1.77;;;;;;;;;;5010331;28;20073;-81
2021/08/09 14:14:30;;;;;;;4.10;1.40;;;;;;;;;;5011221;28;20045;-81
2021/08/09 14:17:01;;;;;;;3.03;1.42;;;;;;;;;;5011102;28;20065;-81
2021/08/09 14:19:28;;;;;;;3.20;1.45;;;;;;;;;;4993020;28;20049;-81
2021/08/09 14:21:56;;;;;;;3.05;1.75;;;;;;;;;;4992831;28;20045;-82
2021/08/09 14:24:25;;;;;;;2.58;1.23;;;;;;;;;;4992563;28;20057;-81
2021/08/09 14:26:57;;;;;;;6.70;2.10;;;;;;;;;;5005424;28;20046;-81
2021/08/09 14:29:24;;;;;;;4.75;1.42;;;;;;;;;;5000864;28;20137;-82
2021/08/09 14:31:52;;;;;;;4.82;2.00;;;;;;;;;;5006688;28;20068;-82
2021/08/09 14:34:21;;;;;;;3.25;1.58;;;;;;;;;;4998975;28;20392;-82
2021/08/09 14:36:51;;;;;;;7.72;1.80;;;;;;;;;;4993740;28;20045;-81
2021/08/09 14:39:19;;;;;;;2.53;1.58;;;;;;;;;;4993305;28;20076;-81
2021/08/09 14:41:52;;;;;;;5.72;1.65;;;;;;;;;;4999870;28;20042;-81
2021/08/09 14:44:23;;;;;;;5.07;1.60;;;;;;;;;;5020694;28;20061;-80
2021/08/09 14:46:52;;;;;;;4.38;1.52;;;;;;;;;;5017159;28;20045;-82
2021/08/09 14:49:29;;;;;;;4.28;2.00;;;;;;;;;;5004872;28;20100;-80
2021/08/09 14:51:57;;;;;;;2.55;1.92;;;;;;;;;;5021358;28;20057;-80
2021/08/09 14:54:26;;;;;;;5.88;1.80;;;;;;;;;;5032958;28;20042;-80
2021/08/09 14:56:55;;;;;;;4.72;2.08;;;;;;;;;;5031766;28;20106;-81
2021/08/09 14:59:26;;;;;;;5.25;1.75;;;;;;;;;;5037521;28;20041;-81
2021/08/09 15:01:54;;;;;;;5.88;2.10;;;;;;;;;;5035103;28;20165;-82
2021/08/09 15:04:23;;;;;;;2.72;1.40;;;;;;;;;;5030847;28;20187;-82
2021/08/09 15:07:00;;;;;;;2.33;1.45;;;;;;;;;;5014940;28;20399;-81
2021/08/09 15:09:31;;;;;;;4.05;2.03;;;;;;;;;;5014744;28;20037;-80
2021/08/09 15:11:58;;;;;;;3.70;1.70;;;;;;;;;;5015137;28;20069;-81
2021/08/09 15:14:28;;;;;;;2.53;1.40;;;;;;;;;;5033489;28;20079;-80
2021/08/09 15:17:00;;;;;;;5.53;2.30;;;;;;;;;;5032686;28;20064;-81
2021/08/09 15:19:27;;;;;;;4.53;1.42;;;;;;;;;;5015942;28;20561;-80
2021/08/09 15:21:55;;;;;;;5.60;1.45;;;;;;;;;;5033077;28;20119;-82
2021/08/09 15:24:22;;;;;;;4.47;1.67;;;;;;;;;;5032741;28;20048;-82
2021/08/09 15:26:59;;;;;;;2.53;1.40;;;;;;;;;;5032949;28;20049;-83
2021/08/09 15:29:28;;;;;;;4.68;1.45;;;;;;;;;;5032701;28;20053;-82
2021/08/09 15:31:55;;;;;;;5.13;1.85;;;;;;;;;;5032635;28;20056;-80
2021/08/09 15:34:22;;;;;;;6.97;1.60;;;;;;;;;;5032908;28;20080;-81
2021/08/09 15:36:54;;;;;;;3.38;1.50;;;;;;;;;;5032181;28;20483;-81
2021/08/09 15:39:21;;;;;;;2.35;1.17;;;;;;;;;;5032691;28;20045;-80
2021/08/09 15:41:49;;;;;;;5.60;2.03;;;;;;;;;;5033595;28;20034;-81
2021/08/09 15:44:16;;;;;;;4.60;2.03;;;;;;;;;;5037486;28;20045;-81
2021/08/09 15:46:46;;;;;;;2.85;1.30;;;;;;;;;;5031942;28;20053;-81
2021/08/09 15:49:15;;;;;;;2.03;1.50;;;;;;;;;;5032137;28;20064;-81
2021/08/09 15:51:43;;;;;;;5.15;1.63;;;;;;;;;;5031322;28;20081;-81
2021/08/09 15:54:11;;;;;;;5.40;1.63;;;;;;;;;;5032295;28;20046;-81
2021/08/09 15:56:39;;;;;;;6.20;1.65;;;;;;;;;;5032054;28;20038;-80
2021/08/09 15:59:07;;;;;;;4.07;1.70;;;;;;;;;;5014562;28;20095;-80
2021/08/09 16:01:35;;;;;;;5.15;1.60;;;;;;;;;;5032473;28;20558;-80
2021/08/09 16:04:04;;;;;;;2.83;1.30;;;;;;;;;;5032525;28;20384;-80
2021/08/09 16:06:34;;;;;;;6.25;2.00;;;;;;;;;;5031640;28;20053;-81
2021/08/09 16:09:01;;;;;;;4.82;1.77;;;;;;;;;;5032882;28;20129;-81
2021/08/09 16:11:28;;;;;;;5.15;1.50;;;;;;;;;;5032757;28;20060;-81
2021/08/09 16:13:55;;;;;;;3.40;1.50;;;;;;;;;;5032272;28;20136;-80
2021/08/09 16:16:23;;;;;;;5.18;1.48;;;;;;;;;;5031925;28;20081;-81
2021/08/09 16:18:50;;;;;;;5.88;1.90;;;;;;;;;;5032434;28;20038;-80
2021/08/09 16:21:19;;;;;;;3.67;1.88;;;;;;;;;;5032352;28;20051;-81
2021/08/09 16:23:51;;;;;;;6.30;1.80;;;;;;;;;;5031501;28;20048;-80
2021/08/09 16:26:19;;;;;;;4.35;1.40;;;;;;;;;;5032196;28;20108;-80
2021/08/09 16:28:46;;;;;;;3.08;1.45;;;;;;;;;;5031905;28;20047;-81
2021/08/09 16:31:13;;;;;;;5.15;1.52;;;;;;;;;;5031847;28;20143;-81
2021/08/09 16:33:41;;;;;;;7.05;2.00;;;;;;;;;;5031674;28;20080;-81
2021/08/09 16:36:08;;;;;;;4.55;1.38;;;;;;;;;;5031379;28;20068;-81
2021/08/09 16:38:37;;;;;;;7.43;1.70;;;;;;;;;;5031080;28;20125;-81
2021/08/09 16:41:07;;;;;;;4.65;1.67;;;;;;;;;;5031492;28;20479;-81
2021/08/09 16:43:35;;;;;;;8.07;1.42;;;;;;;;;;5031731;28;20092;-81
2021/08/09 16:46:03;;;;;;;9.00;1.90;;;;;;;;;;5030971;28;20113;-81
2021/08/09 16:48:31;;;;;;;4.60;1.65;;;;;;;;;;5030840;28;20495;-80
2021/08/09 16:50:59;;;;;;;6.25;1.88;;;;;;;;;;5030806;28;20495;-81
2021/08/09 16:53:26;;;;;;;6.30;1.40;;;;;;;;;;5030737;28;20047;-81
2021/08/09 16:55:55;;;;;;;6.05;1.40;;;;;;;;;;5030874;28;20037;-80
2021/08/09 16:58:22;;;;;;;4.90;1.60;;;;;;;;;;5030625;28;20052;-81
2021/08/09 17:00:49;;;;;;;6.53;1.85;;;;;;;;;;5030899;28;20438;-80
2021/08/09 17:03:17;;;;;;;3.95;1.40;;;;;;;;;;5030391;28;20380;-81
2021/08/09 17:05:44;;;;;;;3.80;1.50;;;;;;;;;;5030377;28;20044;-81
2021/08/09 17:08:12;;;;;;;6.43;1.75;;;;;;;;;;5012219;28;20049;-80
2021/08/09 17:10:42;;;;;;;4.55;1.45;;;;;;;;;;5012696;28;20424;-80
2021/08/09 17:13:13;;;;;;;3.42;1.55;;;;;;;;;;5030598;28;20043;-81
2021/08/09 17:15:42;;;;;;;4.82;1.80;;;;;;;;;;5012697;28;20047;-80
2021/08/09 17:18:10;;;;;;;7.65;2.28;;;;;;;;;;5012396;28;20049;-80
2021/08/09 17:20:37;;;;;;;4.15;2.00;;;;;;;;;;5031014;28;20048;-80
2021/08/09 17:23:04;;;;;;;7.45;2.53;;;;;;;;;;5030139;28;20076;-81
2021/08/09 17:25:35;;;;;;;6.75;2.10;;;;;;;;;;5030056;28;20048;-80
2021/08/09 17:28:02;;;;;;;7.55;1.98;;;;;;;;;;5030033;28;20041;-80
2021/08/09 17:30:31;;;;;;;6.57;1.85;;;;;;;;;;5029770;28;20124;-80
2021/08/09 17:32:59;;;;;;;6.18;1.83;;;;;;;;;;5030435;28;20049;-80
2021/08/09 17:35:26;;;;;;;7.07;2.13;;;;;;;;;;5030112;28;20034;-80
2021/08/09 17:37:53;;;;;;;6.45;1.85;;;;;;;;;;5030081;28;20237;-80
2021/08/09 17:40:21;;;;;;;7.93;1.55;;;;;;;;;;5040990;28;20042;-80
2021/08/09 17:42:49;;;;;;;8.07;1.45;;;;;;;;;;5044069;28;20056;-80
2021/08/09 17:45:18;;;;;;;8.43;1.70;;;;;;;;;;5048196;28;20048;-80
2021/08/09 17:47:47;;;;;;;5.45;1.52;;;;;;;;;;5046468;28;20118;-80
2021/08/09 17:50:14;;;;;;;4.55;1.27;;;;;;;;;;5046792;28;20097;-80
2021/08/09 17:52:42;;;;;;;3.08;1.30;;;;;;;;;;5038756;28;20054;-80
2021/08/09 17:55:12;;;;;;;4.63;2.03;;;;;;;;;;5030278;28;20418;-80
2021/08/09 17:57:39;;;;;;;6.18;1.83;;;;;;;;;;5029704;28;20052;-80
2021/08/09 18:00:07;;;;;;;4.40;1.85;;;;;;;;;;5030473;28;20041;-80
2021/08/09 18:02:41;;;;;;;3.63;1.40;;;;;;;;;;5030615;28;20103;-80
2021/08/09 18:05:10;;;;;;;3.15;1.42;;;;;;;;;;5030440;28;20046;-80
2021/08/09 18:07:38;;;;;;;3.95;1.55;;;;;;;;;;5029747;28;20402;-79
2021/08/09 18:10:09;;;;;;;4.38;1.48;;;;;;;;;;5030847;28;20053;-80
2021/08/09 18:12:36;;;;;;;5.47;1.60;;;;;;;;;;5029736;28;20046;-80
2021/08/09 18:15:04;;;;;;;5.80;1.50;;;;;;;;;;5030741;28;20056;-78
2021/08/09 18:17:31;;;;;;;5.90;1.50;;;;;;;;;;5033432;28;20044;-81
2021/08/09 18:19:59;;;;;;;4.03;1.70;;;;;;;;;;5033932;28;20056;-80
2021/08/09 18:22:31;;;;;;;5.45;1.80;;;;;;;;;;5033861;28;20033;-80
2021/08/09 18:24:59;;;;;;;4.35;1.75;;;;;;;;;;5033671;28;20398;-80
2021/08/09 18:27:26;;;;;;;3.85;1.60;;;;;;;;;;5033041;28;20410;-80
2021/08/09 18:29:55;;;;;;;6.75;2.53;;;;;;;;;;5033669;28;20092;-81
2021/08/09 18:32:22;;;;;;;7.40;2.42;;;;;;;;;;5033352;28;20053;-80
2021/08/09 18:34:49;;;;;;;5.35;1.70;;;;;;;;;;5034000;28;20069;-80
2021/08/09 18:37:17;;;;;;;2.88;1.60;;;;;;;;;;5053175;28;20041;-80
2021/08/09 18:39:47;;;;;;;4.75;1.77;;;;;;;;;;5051665;28;20049;-80
2021/08/09 18:42:14;;;;;;;7.18;2.10;;;;;;;;;;5026295;28;20187;-81
2021/08/09 18:44:42;;;;;;;5.43;1.88;;;;;;;;;;5034046;28;20076;-81
2021/08/09 18:47:09;;;;;;;4.40;2.00;;;;;;;;;;5033454;28;20426;-80
2021/08/09 18:49:36;;;;;;;7.80;2.40;;;;;;;;;;5048273;28;20029;-80
2021/08/09 18:52:04;;;;;;;5.40;2.10;;;;;;;;;;5053385;28;20320;-81
2021/08/09 18:54:31;;;;;;;6.07;2.22;;;;;;;;;;5053364;28;20041;-81
2021/08/09 18:57:06;;;;;;;5.80;1.80;;;;;;;;;;5032935;28;20049;-81
2021/08/09 18:59:33;;;;;;;6.47;1.90;;;;;;;;;;5032739;28;20048;-81
2021/08/09 19:02:01;;;;;;;9.48;2.38;;;;;;;;;;5032567;28;20041;-81
2021/08/09 19:04:28;;;;;;;9.48;2.10;;;;;;;;;;5032546;28;20037;-81
2021/08/09 19:06:55;;;;;;;6.25;2.20;;;;;;;;;;5032218;28;20116;-81
2021/08/09 19:09:23;;;;;;;4.75;1.92;;;;;;;;;;5032326;28;20049;-81
2021/08/09 19:11:50;;;;;;;5.35;2.08;;;;;;;;;;5032791;28;20042;-81
2021/08/09 19:14:19;;;;;;;6.60;2.40;;;;;;;;;;5032650;28;20046;-81
2021/08/09 19:16:46;;;;;;;7.75;2.78;;;;;;;;;;5032018;28;20038;-81
2021/08/09 19:19:14;;;;;;;7.45;2.67;;;;;;;;;;5032622;28;20045;-81
2021/08/09 19:21:41;;;;;;;4.28;2.47;;;;;;;;;;5032587;28;20506;-81
2021/08/09 19:24:08;;;;;;;4.72;2.08;;;;;;;;;;5033091;28;20041;-81
2021/08/09 19:26:39;;;;;;;10.88;3.35;;;;;;;;;;5031717;28;20529;-80
2021/08/09 19:29:06;;;;;;;8.00;2.72;;;;;;;;;;5033471;28;20053;-81
2021/08/09 19:31:35;;;;;;;5.43;2.38;;;;;;;;;;5032649;28;20042;-80
2021/08/09 19:34:02;;;;;;;6.32;2.40;;;;;;;;;;5032779;28;20073;-80
2021/08/09 19:36:30;;;;;;;9.52;2.17;;;;;;;;;;5032455;28;20124;-81
2021/08/09 19:38:57;;;;;;;7.25;2.90;;;;;;;;;;5032662;28;20041;-80
2021/08/09 19:41:24;;;;;;;7.95;3.00;;;;;;;;;;5032461;28;20041;-81
2021/08/09 19:43:51;;;;;;;6.45;2.85;;;;;;;;;;5033424;28;20077;-80